Time;durP1;ratioP1;P1;durP2;ratioP2;P2;SDS_P1;SDS_P2;PMS_P1;PMS_P2;Temp;Humidity;BMP_temperature;BMP_pressure;BME280_temperature;BME280_humidity;BME280_pressure;Samples;Min_cycle;Max_cycle;Signal;HPM_P1;HPM_P2
2021/06/25 00:01:02;;;;;;;19.08;5.75;;;12.40;91.40;;;;;;5023926;28;20053;-54
2021/06/25 00:03:29;;;;;;;7.68;6.53;;;12.40;91.40;;;;;;5032546;28;20133;-53
2021/06/25 00:05:55;;;;;;;9.75;7.72;;;12.30;91.50;;;;;;5015512;28;20489;-54
2021/06/25 00:08:21;;;;;;;7.95;7.07;;;12.20;91.40;;;;;;4993843;28;20042;-52
2021/06/25 00:10:48;;;;;;;11.25;8.98;;;12.20;91.50;;;;;;5007725;28;20033;-54
2021/06/25 00:13:13;;;;;;;10.20;9.10;;;12.10;91.50;;;;;;4996809;28;20050;-55
2021/06/25 00:15:39;;;;;;;13.75;10.20;;;12.10;91.60;;;;;;4993811;28;20181;-54
2021/06/25 00:18:05;;;;;;;12.98;10.07;;;12.10;91.80;;;;;;4967691;28;20058;-52
2021/06/25 00:20:31;;;;;;;12.15;10.52;;;12.10;91.90;;;;;;4994215;28;20046;-53
2021/06/25 00:23:01;;;;;;;12.60;10.18;;;12.00;92.00;;;;;;4995317;28;20081;-55
2021/06/25 00:25:27;;;;;;;15.65;10.35;;;12.00;92.00;;;;;;5002353;28;20050;-54
2021/06/25 00:27:52;;;;;;;12.13;10.63;;;12.00;92.10;;;;;;5000667;28;20491;-55
2021/06/25 00:30:18;;;;;;;13.50;10.57;;;11.90;92.10;;;;;;4993890;28;20041;-54
2021/06/25 00:32:45;;;;;;;11.80;9.80;;;11.80;92.10;;;;;;4994153;28;20470;-55
2021/06/25 00:35:14;;;;;;;10.13;7.28;;;11.90;92.10;;;;;;4995059;28;20043;-54
2021/06/25 00:37:39;;;;;;;8.27;6.50;;;11.80;92.10;;;;;;4994093;28;20045;-54
2021/06/25 00:40:06;;;;;;;6.82;5.63;;;11.80;91.90;;;;;;4993722;28;20643;-55
2021/06/25 00:42:35;;;;;;;11.38;9.45;;;11.80;91.80;;;;;;4986759;28;20407;-55
2021/06/25 00:45:15;;;;;;;11.13;9.68;;;11.80;91.90;;;;;;4973708;28;20043;-54
2021/06/25 00:47:46;;;;;;;13.40;9.98;;;11.80;92.10;;;;;;4993786;28;20046;-55
2021/06/25 00:50:15;;;;;;;11.07;9.82;;;11.70;92.10;;;;;;4993330;28;20038;-54
2021/06/25 00:52:43;;;;;;;11.32;8.80;;;11.70;92.10;;;;;;4979752;28;20096;-55
2021/06/25 00:55:09;;;;;;;14.80;10.60;;;11.70;92.10;;;;;;5003454;28;20042;-54
2021/06/25 00:57:36;;;;;;;13.07;9.52;;;11.60;92.00;;;;;;4993335;28;20066;-55
2021/06/25 01:00:04;;;;;;;11.55;9.55;;;11.60;92.10;;;;;;4993162;28;20073;-53
2021/06/25 01:02:30;;;;;;;10.88;9.52;;;11.60;92.20;;;;;;4994371;28;20129;-52
2021/06/25 01:04:56;;;;;;;10.02;8.95;;;11.50;92.00;;;;;;4973518;28;20509;-52
2021/06/25 01:07:21;;;;;;;15.38;9.77;;;11.50;92.00;;;;;;5005475;28;20079;-52
2021/06/25 01:09:47;;;;;;;11.07;8.88;;;11.50;92.30;;;;;;4995950;28;20042;-55
2021/06/25 01:12:13;;;;;;;12.32;9.77;;;11.50;92.00;;;;;;5013274;28;20406;-55
2021/06/25 01:14:39;;;;;;;12.77;10.35;;;11.40;92.10;;;;;;5012472;28;20138;-51
2021/06/25 01:17:08;;;;;;;13.35;10.88;;;11.40;92.10;;;;;;5006699;28;20116;-53
2021/06/25 01:19:34;;;;;;;14.35;9.55;;;11.40;92.10;;;;;;5013388;28;20046;-55
2021/06/25 01:22:00;;;;;;;10.95;9.43;;;11.40;92.10;;;;;;5012156;28;20041;-54
2021/06/25 01:24:26;;;;;;;10.63;8.85;;;11.40;92.10;;;;;;4995844;28;20414;-53
2021/06/25 01:26:52;;;;;;;11.63;9.13;;;11.30;92.00;;;;;;5012421;28;20030;-55
2021/06/25 01:29:19;;;;;;;8.68;7.65;;;11.30;92.10;;;;;;5012496;28;20060;-55
2021/06/25 01:31:46;;;;;;;10.50;8.30;;;11.30;92.00;;;;;;5011903;28;20498;-53
2021/06/25 01:34:12;;;;;;;10.13;6.80;;;11.20;91.90;;;;;;5012999;28;20050;-54
2021/06/25 01:36:39;;;;;;;9.80;7.95;;;11.20;91.90;;;;;;5012142;28;20121;-51
2021/06/25 01:39:06;;;;;;;6.93;5.88;;;11.10;91.90;;;;;;4995831;28;20125;-55
2021/06/25 01:41:37;;;;;;;6.35;5.05;;;11.10;91.90;;;;;;5012985;28;20498;-54
2021/06/25 01:44:03;;;;;;;7.65;6.30;;;11.00;91.80;;;;;;5012765;28;20050;-51
2021/06/25 01:46:29;;;;;;;6.15;5.03;;;10.90;91.70;;;;;;4998573;28;20100;-52
2021/06/25 01:48:55;;;;;;;6.47;5.05;;;10.80;91.80;;;;;;5013154;28;20050;-53
2021/06/25 01:51:20;;;;;;;6.85;5.50;;;10.80;91.80;;;;;;5011650;28;20048;-54
2021/06/25 01:53:46;;;;;;;6.40;4.93;;;10.70;91.80;;;;;;5013529;28;20073;-53
2021/06/25 01:56:12;;;;;;;7.53;4.95;;;10.70;91.90;;;;;;5011666;28;20064;-53
2021/06/25 01:58:38;;;;;;;5.97;3.83;;;10.70;91.90;;;;;;5014862;28;20057;-53
2021/06/25 02:01:16;;;;;;;4.60;3.42;;;10.60;91.80;;;;;;5016458;28;20502;-53
2021/06/25 02:03:44;;;;;;;5.78;4.63;;;10.50;91.80;;;;;;5001839;28;20387;-51
2021/06/25 02:06:11;;;;;;;7.10;6.20;;;10.50;91.80;;;;;;4978237;28;20057;-50
2021/06/25 02:08:41;;;;;;;8.27;5.90;;;10.40;91.90;;;;;;5011380;28;20042;-50
2021/06/25 02:11:08;;;;;;;4.82;3.92;;;10.40;92.30;;;;;;5015843;28;20046;-49
2021/06/25 02:13:35;;;;;;;7.85;4.97;;;10.40;92.00;;;;;;5016083;28;20049;-52
2021/06/25 02:16:00;;;;;;;7.68;5.75;;;10.30;91.90;;;;;;5011249;28;20045;-52
2021/06/25 02:18:26;;;;;;;9.93;6.90;;;10.30;91.80;;;;;;5013520;28;20122;-54
2021/06/25 02:20:52;;;;;;;52.63;8.70;;;10.20;91.90;;;;;;4995832;28;20061;-51
2021/06/25 02:23:18;;;;;;;61.60;8.43;;;10.20;92.00;;;;;;5013096;28;20049;-51
2021/06/25 02:25:47;;;;;;;18.15;7.10;;;10.20;92.10;;;;;;5014946;28;20033;-54
2021/06/25 02:28:13;;;;;;;47.38;8.30;;;10.10;92.10;;;;;;5016778;28;20487;-53
2021/06/25 02:30:38;;;;;;;21.33;8.48;;;10.10;92.30;;;;;;5010684;28;20041;-53
2021/06/25 02:33:05;;;;;;;11.70;8.30;;;10.10;92.40;;;;;;5013671;28;20042;-52
2021/06/25 02:35:30;;;;;;;15.85;9.73;;;10.10;92.50;;;;;;5012109;28;20462;-50
2021/06/25 02:37:56;;;;;;;11.68;9.30;;;10.10;92.80;;;;;;5017007;28;20042;-53
2021/06/25 02:40:23;;;;;;;10.93;9.30;;;10.10;92.80;;;;;;5011507;28;20161;-51
2021/06/25 02:42:49;;;;;;;46.90;9.40;;;10.10;92.90;;;;;;5012303;28;20442;-49
2021/06/25 02:45:16;;;;;;;93.57;10.60;;;10.10;93.00;;;;;;5014231;28;20399;-49
2021/06/25 02:47:42;;;;;;;138.52;10.57;;;10.10;93.10;;;;;;5008844;28;20034;-50
2021/06/25 02:50:09;;;;;;;21.02;7.63;;;10.10;93.10;;;;;;5003215;28;20112;-50
2021/06/25 02:52:35;;;;;;;15.38;6.82;;;10.10;93.00;;;;;;5015316;28;20540;-50
2021/06/25 02:55:01;;;;;;;75.22;8.77;;;10.10;93.00;;;;;;5010636;28;20491;-52
2021/06/25 02:57:27;;;;;;;75.88;8.30;;;10.00;93.00;;;;;;5011268;28;20042;-50
2021/06/25 02:59:53;;;;;;;45.92;7.60;;;10.00;93.00;;;;;;5011646;28;20042;-50
2021/06/25 03:02:19;;;;;;;52.60;8.38;;;10.00;93.00;;;;;;4994935;28;20042;-52
2021/06/25 03:04:45;;;;;;;38.85;7.60;;;9.90;93.00;;;;;;4996559;28;20485;-48
2021/06/25 03:07:10;;;;;;;15.50;7.25;;;9.90;93.00;;;;;;5003381;28;20126;-49
2021/06/25 03:09:37;;;;;;;11.73;6.95;;;9.90;93.00;;;;;;4994250;28;20073;-52
2021/06/25 03:12:03;;;;;;;12.10;7.30;;;9.90;93.00;;;;;;4993246;28;20057;-49
2021/06/25 03:14:30;;;;;;;23.85;7.53;;;9.80;93.10;;;;;;4996000;28;20073;-55
2021/06/25 03:16:56;;;;;;;27.77;8.15;;;9.80;93.10;;;;;;4976063;28;20491;-48
2021/06/25 03:19:24;;;;;;;18.05;7.40;;;9.80;93.10;;;;;;4992463;28;20074;-51
2021/06/25 03:21:50;;;;;;;39.50;8.00;;;9.80;93.10;;;;;;5003395;28;20548;-49
2021/06/25 03:24:15;;;;;;;16.38;7.28;;;9.70;93.00;;;;;;4993438;28;20082;-50
2021/06/25 03:26:41;;;;;;;9.55;7.43;;;9.70;93.00;;;;;;4995395;28;20093;-50
2021/06/25 03:29:07;;;;;;;9.85;7.40;;;9.70;93.00;;;;;;4996058;28;20366;-49
2021/06/25 03:31:37;;;;;;;13.20;7.70;;;9.70;93.00;;;;;;4981718;28;20045;-51
2021/06/25 03:34:03;;;;;;;10.68;8.10;;;9.70;93.00;;;;;;5015413;28;20569;-50
2021/06/25 03:36:28;;;;;;;12.27;8.88;;;9.70;93.00;;;;;;5001321;28;20193;-49
2021/06/25 03:38:58;;;;;;;12.77;8.70;;;9.70;93.20;;;;;;5006949;28;20046;-51
2021/06/25 03:41:24;;;;;;;12.55;9.93;;;9.70;93.20;;;;;;4991997;28;20102;-51
2021/06/25 03:43:50;;;;;;;12.05;9.90;;;9.70;93.40;;;;;;4975512;28;20034;-50
2021/06/25 03:46:17;;;;;;;12.15;9.73;;;9.70;93.40;;;;;;4993597;28;20042;-52
2021/06/25 03:48:43;;;;;;;12.05;10.07;;;9.70;93.30;;;;;;4994510;28;20514;-50
2021/06/25 03:51:09;;;;;;;11.52;9.05;;;9.80;93.40;;;;;;4994658;28;20039;-51
2021/06/25 03:53:35;;;;;;;12.65;9.35;;;9.90;93.30;;;;;;4994142;28;20049;-53
2021/06/25 03:56:10;;;;;;;10.05;7.97;;;9.90;93.20;;;;;;4993468;28;20042;-51
2021/06/25 03:58:37;;;;;;;18.20;11.82;;;9.90;93.10;;;;;;4997244;28;20073;-48
2021/06/25 04:01:04;;;;;;;14.82;11.90;;;9.90;93.20;;;;;;5002148;28;20054;-51
2021/06/25 04:03:31;;;;;;;16.45;12.05;;;10.00;93.30;;;;;;5013700;28;20056;-48
2021/06/25 04:05:56;;;;;;;15.55;11.48;;;10.00;93.30;;;;;;5003886;28;20073;-49
2021/06/25 04:08:25;;;;;;;16.30;10.98;;;10.00;93.30;;;;;;5014720;28;20048;-48
2021/06/25 04:10:51;;;;;;;16.92;10.93;;;10.10;93.30;;;;;;5014478;28;20041;-50
2021/06/25 04:13:16;;;;;;;14.70;10.07;;;10.10;93.30;;;;;;5016596;28;20103;-52
2021/06/25 04:15:42;;;;;;;17.30;9.38;;;10.20;93.20;;;;;;5015141;28;20049;-49
2021/06/25 04:18:08;;;;;;;16.50;8.63;;;10.20;93.20;;;;;;5015884;28;20038;-50
2021/06/25 04:20:34;;;;;;;12.27;9.23;;;10.20;93.10;;;;;;5015793;28;20042;-52
2021/06/25 04:22:59;;;;;;;17.50;10.55;;;10.20;93.00;;;;;;5014884;28;20038;-49
2021/06/25 04:25:25;;;;;;;20.10;12.40;;;10.30;93.10;;;;;;5027026;28;20089;-49
2021/06/25 04:27:51;;;;;;;21.50;11.27;;;10.30;93.20;;;;;;4997515;28;20038;-51
2021/06/25 04:30:18;;;;;;;15.00;10.48;;;10.30;93.30;;;;;;5017489;28;20056;-52
2021/06/25 04:32:45;;;;;;;11.80;8.82;;;10.40;93.30;;;;;;5013063;28;20116;-48
2021/06/25 04:35:11;;;;;;;17.55;9.20;;;10.40;93.10;;;;;;4997238;28;20038;-50
2021/06/25 04:37:37;;;;;;;16.80;10.73;;;10.50;93.00;;;;;;5012820;28;20049;-50
2021/06/25 04:40:03;;;;;;;22.05;11.27;;;10.50;93.00;;;;;;5013463;28;20038;-50
2021/06/25 04:42:33;;;;;;;18.33;12.00;;;10.60;93.10;;;;;;5014152;28;20036;-49
2021/06/25 04:44:59;;;;;;;15.10;11.43;;;10.60;93.20;;;;;;5014260;28;20129;-49
2021/06/25 04:47:25;;;;;;;19.77;12.32;;;10.60;93.30;;;;;;5013079;28;20053;-50
2021/06/25 04:49:51;;;;;;;15.98;11.15;;;10.70;93.40;;;;;;4997129;28;20099;-49
2021/06/25 04:52:17;;;;;;;19.13;13.27;;;10.70;93.50;;;;;;5014606;28;20048;-48
2021/06/25 04:54:43;;;;;;;15.43;12.50;;;10.80;93.50;;;;;;5014157;28;20566;-50
2021/06/25 04:57:09;;;;;;;15.35;11.90;;;10.80;93.50;;;;;;5007414;28;20042;-52
2021/06/25 04:59:39;;;;;;;12.75;11.27;;;10.90;93.40;;;;;;4995138;28;20049;-54
2021/06/25 05:02:07;;;;;;;17.02;12.43;;;10.90;93.40;;;;;;4995599;28;20054;-55
2021/06/25 05:04:32;;;;;;;15.35;12.45;;;11.10;93.40;;;;;;5012315;28;20124;-52
2021/06/25 05:06:58;;;;;;;17.08;11.43;;;11.10;93.50;;;;;;5012809;28;20589;-55
2021/06/25 05:09:24;;;;;;;14.48;12.25;;;11.20;93.50;;;;;;5013235;28;20081;-52
2021/06/25 05:11:56;;;;;;;20.42;14.40;;;11.30;93.50;;;;;;5012584;28;20081;-52
2021/06/25 05:14:27;;;;;;;22.02;17.30;;;11.30;93.50;;;;;;5003897;28;20484;-51
2021/06/25 05:16:53;;;;;;;19.90;16.15;;;11.40;93.80;;;;;;5012379;28;20046;-52
2021/06/25 05:19:19;;;;;;;22.85;17.02;;;11.70;94.00;;;;;;5011739;28;20041;-51
2021/06/25 05:21:45;;;;;;;21.95;16.10;;;11.90;94.00;;;;;;5012805;28;20100;-51
2021/06/25 05:24:10;;;;;;;23.50;16.92;;;12.10;94.00;;;;;;5012009;28;20042;-51
2021/06/25 05:26:36;;;;;;;21.85;16.75;;;12.40;94.00;;;;;;5014139;28;20061;-51
2021/06/25 05:29:03;;;;;;;19.20;16.02;;;12.60;93.50;;;;;;5013260;28;20104;-48
2021/06/25 05:31:29;;;;;;;21.92;16.88;;;13.00;93.50;;;;;;5014395;28;20069;-54
2021/06/25 05:33:56;;;;;;;22.70;18.27;;;13.30;93.10;;;;;;5014454;28;20115;-52
2021/06/25 05:36:22;;;;;;;23.70;18.40;;;13.60;92.60;;;;;;5012004;28;20038;-49
2021/06/25 05:38:48;;;;;;;28.67;21.52;;;13.80;92.10;;;;;;5011236;28;20030;-53
2021/06/25 05:41:14;;;;;;;24.35;19.58;;;14.10;91.60;;;;;;5013968;28;20125;-51
2021/06/25 05:43:42;;;;;;;26.65;20.20;;;14.30;91.00;;;;;;5013320;28;20038;-50
2021/06/25 05:46:08;;;;;;;25.65;19.33;;;14.50;90.70;;;;;;5012340;28;20057;-51
2021/06/25 05:48:34;;;;;;;22.50;18.10;;;14.70;90.60;;;;;;4996188;28;20050;-52
2021/06/25 05:51:00;;;;;;;23.10;18.92;;;15.00;90.60;;;;;;5013596;28;20501;-49
2021/06/25 05:53:25;;;;;;;23.30;19.48;;;15.10;90.20;;;;;;5012156;28;20109;-48
2021/06/25 05:55:51;;;;;;;25.35;20.48;;;15.10;89.70;;;;;;5018355;28;20037;-52
2021/06/25 05:58:17;;;;;;;25.25;19.60;;;15.00;89.40;;;;;;5020212;28;20061;-52
2021/06/25 06:00:43;;;;;;;24.15;20.15;;;15.00;89.90;;;;;;5013290;28;20080;-51
2021/06/25 06:03:10;;;;;;;30.00;21.35;;;14.90;90.10;;;;;;5012367;28;20057;-54
2021/06/25 06:05:36;;;;;;;28.92;20.60;;;14.80;90.40;;;;;;5013370;28;20056;-51
2021/06/25 06:08:03;;;;;;;28.25;20.98;;;14.80;90.60;;;;;;5012121;28;20033;-50
2021/06/25 06:10:34;;;;;;;26.67;20.60;;;14.80;90.70;;;;;;5019416;28;20042;-49
2021/06/25 06:13:00;;;;;;;31.55;22.00;;;14.80;90.70;;;;;;5011849;28;20132;-49
2021/06/25 06:15:26;;;;;;;26.65;21.00;;;14.80;90.70;;;;;;5010984;28;20049;-49
2021/06/25 06:17:52;;;;;;;33.25;22.00;;;14.80;90.80;;;;;;5010171;28;20041;-51
2021/06/25 06:20:20;;;;;;;26.75;21.73;;;14.80;90.80;;;;;;5012718;28;20036;-52
2021/06/25 06:31:13;;;;;;;21.80;14.77;;;14.80;90.00;;;;;;5013198;28;20069;-48
2021/06/25 06:33:55;;;;;;;18.52;13.13;;;14.80;88.00;;;;;;4996918;28;20053;-53
2021/06/25 06:36:26;;;;;;;17.17;13.50;;;14.80;86.10;;;;;;5012676;28;20042;-50
2021/06/25 06:38:52;;;;;;;17.00;13.02;;;14.70;85.90;;;;;;5022691;28;20029;-53
2021/06/25 06:41:20;;;;;;;16.33;13.43;;;14.80;86.50;;;;;;5012495;28;20048;-51
2021/06/25 06:43:50;;;;;;;13.63;10.85;;;14.80;86.30;;;;;;5004829;28;20049;-53
2021/06/25 06:46:16;;;;;;;14.98;10.63;;;14.80;82.90;;;;;;5015652;28;20042;-51
2021/06/25 06:48:44;;;;;;;14.18;10.68;;;14.80;80.30;;;;;;5012641;28;20046;-48
2021/06/25 06:51:11;;;;;;;14.88;10.85;;;14.80;79.50;;;;;;5002648;28;20037;-49
2021/06/25 06:53:37;;;;;;;15.18;11.20;;;14.80;79.10;;;;;;5015810;28;20088;-50
2021/06/25 06:56:03;;;;;;;13.95;10.93;;;14.80;78.00;;;;;;4993216;28;20045;-50
2021/06/25 06:58:29;;;;;;;14.63;11.13;;;14.80;78.20;;;;;;5010340;28;20033;-52
2021/06/25 07:00:55;;;;;;;12.98;10.45;;;14.70;77.80;;;;;;5012980;28;20514;-51
2021/06/25 07:03:21;;;;;;;15.50;11.43;;;14.70;77.40;;;;;;5014621;28;20049;-49
2021/06/25 07:05:47;;;;;;;15.02;11.65;;;14.70;76.80;;;;;;5011348;28;20038;-52
2021/06/25 07:08:13;;;;;;;14.55;11.35;;;14.70;77.90;;;;;;4995900;28;20069;-54
2021/06/25 07:10:38;;;;;;;15.10;11.93;;;14.70;78.50;;;;;;4996483;28;20062;-49
2021/06/25 07:13:04;;;;;;;14.13;11.55;;;14.80;77.90;;;;;;4993344;28;20046;-52
2021/06/25 07:15:30;;;;;;;16.17;11.85;;;14.90;76.80;;;;;;4994834;28;20034;-54
2021/06/25 07:17:56;;;;;;;13.02;10.02;;;14.90;77.90;;;;;;4983062;28;20093;-53
2021/06/25 07:20:21;;;;;;;11.10;9.00;;;14.90;77.10;;;;;;4995960;28;20046;-54
2021/06/25 07:22:51;;;;;;;12.95;10.13;;;15.00;76.60;;;;;;4980601;28;20045;-51
2021/06/25 07:25:17;;;;;;;12.98;10.75;;;15.00;76.40;;;;;;4995435;28;20050;-51
2021/06/25 07:27:43;;;;;;;15.38;11.55;;;15.00;76.20;;;;;;4989023;28;20058;-49
2021/06/25 07:30:09;;;;;;;16.17;11.57;;;15.00;76.00;;;;;;4979092;28;20042;-54
2021/06/25 07:32:35;;;;;;;14.57;11.57;;;15.10;74.80;;;;;;4982302;28;20039;-51
2021/06/25 07:35:00;;;;;;;17.58;11.98;;;15.10;74.10;;;;;;5001002;28;20045;-51
2021/06/25 07:37:26;;;;;;;13.77;11.95;;;15.10;74.90;;;;;;5002487;28;20099;-50
2021/06/25 07:39:52;;;;;;;15.88;12.43;;;15.10;74.70;;;;;;4994922;28;20475;-54
2021/06/25 07:42:18;;;;;;;14.75;11.25;;;15.10;75.90;;;;;;4993147;28;20050;-54
2021/06/25 07:44:44;;;;;;;13.27;10.98;;;15.10;75.90;;;;;;4978516;28;20050;-54
2021/06/25 07:47:09;;;;;;;13.43;11.23;;;15.00;75.50;;;;;;5013671;28;20045;-52
2021/06/25 07:49:35;;;;;;;15.90;11.65;;;15.00;75.60;;;;;;4995903;28;20084;-52
2021/06/25 07:52:01;;;;;;;14.30;12.25;;;15.00;76.00;;;;;;4960557;28;20046;-54
2021/06/25 07:54:50;;;;;;;15.80;11.60;;;15.00;76.10;;;;;;4993118;28;20053;-50
2021/06/25 07:57:16;;;;;;;14.10;11.50;;;15.00;75.50;;;;;;4995218;28;20042;-52
2021/06/25 07:59:42;;;;;;;15.60;12.05;;;15.00;75.50;;;;;;4981274;28;20049;-53
2021/06/25 08:02:08;;;;;;;15.07;12.48;;;15.00;76.30;;;;;;5007345;28;20124;-55
2021/06/25 08:04:34;;;;;;;15.13;12.73;;;15.00;76.70;;;;;;4994908;28;20038;-55
2021/06/25 08:07:03;;;;;;;16.95;13.23;;;15.00;76.90;;;;;;5011454;28;20042;-50
2021/06/25 08:09:28;;;;;;;17.25;14.10;;;15.10;77.20;;;;;;5014069;28;20093;-52
2021/06/25 08:11:54;;;;;;;17.75;14.02;;;15.20;76.20;;;;;;5010775;28;20104;-53
2021/06/25 08:14:19;;;;;;;17.92;13.95;;;15.20;76.40;;;;;;5022212;28;20050;-50
2021/06/25 08:16:45;;;;;;;17.38;14.63;;;15.30;76.50;;;;;;5030019;28;20491;-52
2021/06/25 08:19:12;;;;;;;17.88;14.57;;;15.30;76.40;;;;;;4989140;28;20045;-54
2021/06/25 08:21:38;;;;;;;19.15;14.90;;;15.40;76.70;;;;;;5011704;28;20153;-53
2021/06/25 08:24:04;;;;;;;19.02;15.10;;;15.50;76.80;;;;;;5011902;28;20041;-54
2021/06/25 08:26:29;;;;;;;17.30;13.90;;;15.60;76.50;;;;;;5013657;28;20372;-48
2021/06/25 08:28:58;;;;;;;17.50;15.05;;;15.60;76.60;;;;;;5031422;28;20057;-54
2021/06/25 08:31:24;;;;;;;17.58;14.57;;;15.80;74.90;;;;;;5022341;28;20045;-51
2021/06/25 08:33:50;;;;;;;17.35;13.70;;;15.80;74.00;;;;;;5012412;28;20548;-53
2021/06/25 08:36:15;;;;;;;17.00;13.57;;;15.80;74.00;;;;;;5012238;28;20053;-54
2021/06/25 08:38:41;;;;;;;16.75;13.70;;;15.90;73.20;;;;;;4995510;28;20060;-54
2021/06/25 08:41:07;;;;;;;16.90;13.60;;;16.00;73.30;;;;;;5011909;28;20049;-54
2021/06/25 08:43:33;;;;;;;15.98;13.35;;;16.10;73.90;;;;;;5025349;28;20451;-54
2021/06/25 08:46:00;;;;;;;17.27;13.18;;;16.20;74.20;;;;;;5012534;28;20394;-53
2021/06/25 08:48:26;;;;;;;17.73;13.85;;;16.30;73.40;;;;;;4995339;28;21480;-51
2021/06/25 08:50:55;;;;;;;19.23;13.40;;;16.30;73.50;;;;;;5012854;28;20491;-52
2021/06/25 08:53:20;;;;;;;18.15;13.40;;;16.40;73.50;;;;;;5012866;28;20046;-55
2021/06/25 08:55:49;;;;;;;17.48;13.27;;;16.50;71.80;;;;;;5011982;28;20050;-52
2021/06/25 08:58:18;;;;;;;17.70;13.52;;;16.50;72.00;;;;;;5010495;28;20042;-55
2021/06/25 09:00:44;;;;;;;21.13;13.98;;;16.60;72.20;;;;;;5012301;28;20046;-55
2021/06/25 09:03:22;;;;;;;18.88;14.95;;;16.60;72.90;;;;;;5012715;28;20132;-53
2021/06/25 09:05:49;;;;;;;21.38;15.20;;;16.70;72.00;;;;;;5010146;28;20120;-53
2021/06/25 09:08:29;;;;;;;21.58;15.77;;;16.80;69.40;;;;;;5011740;28;20069;-51
2021/06/25 09:10:58;;;;;;;20.30;15.65;;;16.90;69.80;;;;;;5012307;28;20046;-51
2021/06/25 09:13:37;;;;;;;21.15;15.05;;;16.90;70.40;;;;;;5012202;28;20092;-50
2021/06/25 09:16:42;;;;;;;17.73;14.48;;;16.90;71.00;;;;;;5011838;28;20044;-52
2021/06/25 09:19:14;;;;;;;22.10;14.98;;;17.00;71.40;;;;;;4961084;28;20070;-54
2021/06/25 09:21:42;;;;;;;19.30;15.07;;;17.00;70.50;;;;;;4951543;28;20051;-52
2021/06/25 09:24:19;;;;;;;21.33;15.50;;;17.10;69.80;;;;;;4982870;28;20054;-56
2021/06/25 09:26:45;;;;;;;21.25;15.35;;;17.00;70.30;;;;;;5010430;28;20108;-49
2021/06/25 09:29:16;;;;;;;21.50;14.90;;;17.10;71.20;;;;;;5012058;28;20069;-51
2021/06/25 09:31:42;;;;;;;20.08;15.05;;;17.20;69.20;;;;;;5011495;28;20041;-53
2021/06/25 09:34:10;;;;;;;29.40;15.10;;;17.20;68.10;;;;;;5011737;28;20120;-56
2021/06/25 09:36:38;;;;;;;20.55;14.82;;;17.20;68.50;;;;;;5014360;28;20633;-49
2021/06/25 09:39:16;;;;;;;18.92;14.75;;;17.20;69.30;;;;;;5016337;28;20030;-53
2021/06/25 09:41:44;;;;;;;18.70;14.77;;;17.30;70.30;;;;;;5012169;28;20041;-52
2021/06/25 09:44:19;;;;;;;22.02;15.25;;;17.30;70.30;;;;;;5010395;28;20046;-51
2021/06/25 09:46:48;;;;;;;20.33;14.25;;;17.40;70.10;;;;;;5011821;28;20040;-51
2021/06/25 09:49:15;;;;;;;21.38;14.45;;;17.40;69.70;;;;;;5012937;28;20056;-51
2021/06/25 09:52:03;;;;;;;19.70;14.13;;;17.50;68.30;;;;;;4994255;28;20037;-50
2021/06/25 09:54:29;;;;;;;21.58;15.07;;;17.50;69.10;;;;;;5007063;28;20042;-52
2021/06/25 10:02:21;;;;;;;17.38;13.60;;;17.80;68.70;;;;;;4997674;28;20053;-53
2021/06/25 10:04:52;;;;;;;17.55;13.73;;;17.90;67.80;;;;;;5002000;28;20068;-52
2021/06/25 10:07:18;;;;;;;;;;;18.00;69.30;;;;;;5000108;28;20046;-53
2021/06/25 10:09:46;;;;;;;18.63;14.73;;;18.00;69.50;;;;;;4995268;28;19928;-52
2021/06/25 10:12:15;;;;;;;19.85;14.57;;;18.00;69.50;;;;;;4993604;28;20046;-54
2021/06/25 10:14:42;;;;;;;24.08;14.48;;;18.10;69.70;;;;;;5004938;28;20041;-53
2021/06/25 10:17:09;;;;;;;20.45;13.98;;;18.20;68.30;;;;;;4993661;28;20565;-54
2021/06/25 10:19:46;;;;;;;17.00;13.82;;;18.30;69.10;;;;;;5009678;28;20042;-52
2021/06/25 10:22:15;;;;;;;18.10;13.73;;;18.40;69.70;;;;;;5011326;28;20049;-54
2021/06/25 10:24:44;;;;;;;18.33;13.45;;;18.60;68.20;;;;;;4992597;28;20372;-50
2021/06/25 10:27:12;;;;;;;17.85;14.13;;;18.80;68.00;;;;;;5011490;28;20042;-53
2021/06/25 10:29:39;;;;;;;22.33;14.55;;;19.00;67.70;;;;;;4997259;28;20085;-55
2021/06/25 10:32:10;;;;;;;20.40;13.05;;;19.10;67.70;;;;;;4977323;28;20042;-55
2021/06/25 10:34:37;;;;;;;17.95;13.57;;;19.40;67.60;;;;;;5011214;28;20045;-55
2021/06/25 10:37:05;;;;;;;20.48;15.35;;;19.50;67.60;;;;;;5017711;28;20042;-55
2021/06/25 10:39:35;;;;;;;20.48;16.25;;;19.70;67.60;;;;;;5003983;28;20046;-52
2021/06/25 10:42:03;;;;;;;20.20;16.30;;;19.70;66.30;;;;;;5010209;28;20046;-54
2021/06/25 10:44:45;;;;;;;25.63;17.48;;;19.70;67.30;;;;;;5010685;28;20042;-54
2021/06/25 10:47:25;;;;;;;21.67;16.10;;;19.70;67.90;;;;;;5007638;28;20482;-55
2021/06/25 10:50:07;;;;;;;22.55;16.98;;;19.70;68.20;;;;;;4997983;28;20503;-54
2021/06/25 10:52:38;;;;;;;21.00;16.33;;;19.80;67.70;;;;;;4996900;28;20080;-54
2021/06/25 10:55:13;;;;;;;23.85;18.33;;;19.90;68.60;;;;;;5016220;28;20038;-54
2021/06/25 10:57:51;;;;;;;24.58;16.60;;;19.90;68.50;;;;;;5006368;28;20042;-52
2021/06/25 11:00:51;;;;;;;24.88;17.50;;;20.10;68.40;;;;;;5014887;28;20088;-53
2021/06/25 11:03:41;;;;;;;23.30;17.33;;;20.10;67.80;;;;;;4999510;28;20046;-53
2021/06/25 11:06:28;;;;;;;25.88;18.33;;;20.10;68.20;;;;;;5013894;28;20103;-54
2021/06/25 11:09:06;;;;;;;23.15;17.92;;;20.10;68.50;;;;;;5005500;28;20514;-49
2021/06/25 11:11:32;;;;;;;24.65;18.67;;;20.00;69.00;;;;;;5005399;28;20046;-49
2021/06/25 11:13:57;;;;;;;22.35;17.33;;;20.00;68.50;;;;;;5003422;28;20044;-51
2021/06/25 11:16:23;;;;;;;25.75;19.30;;;19.90;68.90;;;;;;5005455;28;20040;-53
2021/06/25 11:18:49;;;;;;;24.15;19.00;;;19.80;69.00;;;;;;4984351;28;20050;-55
2021/06/25 11:21:20;;;;;;;22.95;17.75;;;19.80;69.50;;;;;;5009125;28;20462;-52
2021/06/25 11:23:47;;;;;;;22.17;17.98;;;19.80;69.00;;;;;;5015472;28;20065;-55
2021/06/25 11:26:15;;;;;;;27.60;19.42;;;19.80;68.30;;;;;;5012761;28;20104;-52
2021/06/25 11:28:45;;;;;;;29.67;18.20;;;19.90;68.80;;;;;;5004883;28;20134;-51
2021/06/25 11:31:14;;;;;;;27.55;20.48;;;20.00;69.50;;;;;;5017720;28;20050;-54
2021/06/25 11:33:50;;;;;;;27.20;19.55;;;20.20;66.20;;;;;;5008236;28;20038;-51
2021/06/25 11:36:41;;;;;;;25.08;18.92;;;20.20;66.90;;;;;;4994704;28;20071;-53
2021/06/25 11:39:11;;;;;;;25.35;19.17;;;20.10;68.00;;;;;;5002952;28;20499;-55
2021/06/25 11:41:45;;;;;;;29.27;20.20;;;20.00;68.50;;;;;;5013288;28;20054;-54
2021/06/25 11:44:37;;;;;;;28.63;20.98;;;20.10;68.90;;;;;;5013195;28;20030;-54
2021/06/25 11:47:04;;;;;;;25.92;19.67;;;20.00;69.60;;;;;;5014254;28;20093;-54
2021/06/25 11:49:45;;;;;;;26.50;19.48;;;20.00;69.10;;;;;;5020437;28;20073;-54
2021/06/25 11:52:13;;;;;;;23.85;19.13;;;19.90;69.90;;;;;;5018691;28;20045;-54
2021/06/25 11:54:41;;;;;;;26.90;20.27;;;20.00;70.90;;;;;;5005766;28;20034;-51
2021/06/25 11:57:15;;;;;;;25.23;19.60;;;20.00;71.40;;;;;;5002513;28;20411;-52
2021/06/25 11:59:41;;;;;;;26.75;19.77;;;20.10;71.80;;;;;;5000435;28;20111;-52
2021/06/25 12:02:07;;;;;;;27.85;20.63;;;20.10;71.40;;;;;;4986972;28;20510;-49
2021/06/25 12:04:42;;;;;;;27.42;20.45;;;20.10;72.10;;;;;;5008907;28;20046;-50
2021/06/25 12:07:13;;;;;;;26.70;20.13;;;20.00;72.70;;;;;;5016052;28;20108;-48
2021/06/25 12:09:49;;;;;;;29.73;22.73;;;20.00;72.70;;;;;;5013863;28;20053;-46
2021/06/25 12:12:20;;;;;;;28.73;21.25;;;20.00;72.90;;;;;;5015192;28;20077;-50
2021/06/25 12:15:07;;;;;;;29.23;21.65;;;20.00;72.30;;;;;;4995746;28;20137;-54
2021/06/25 12:17:48;;;;;;;25.23;19.50;;;20.00;72.60;;;;;;5012453;28;20037;-50
2021/06/25 12:20:19;;;;;;;31.85;22.52;;;20.00;73.30;;;;;;5002344;28;20041;-52
2021/06/25 12:23:05;;;;;;;29.23;21.70;;;20.10;72.60;;;;;;5007437;28;20194;-48
2021/06/25 12:25:43;;;;;;;28.08;22.33;;;20.30;72.90;;;;;;5007076;28;20800;-49
2021/06/25 12:28:13;;;;;;;32.65;23.30;;;20.30;72.70;;;;;;4983594;28;20077;-52
2021/06/25 12:30:48;;;;;;;27.35;20.75;;;20.40;72.10;;;;;;5004750;28;20038;-51
2021/06/25 12:33:16;;;;;;;29.92;20.90;;;20.40;73.00;;;;;;5003156;28;20129;-54
2021/06/25 12:35:51;;;;;;;25.70;19.58;;;20.50;72.50;;;;;;5016542;28;20089;-51
2021/06/25 12:38:21;;;;;;;23.55;19.10;;;20.60;71.60;;;;;;4999494;28;20062;-51
2021/06/25 12:41:01;;;;;;;22.77;18.77;;;20.70;71.00;;;;;;5009965;28;20494;-53
2021/06/25 12:43:26;;;;;;;25.23;19.48;;;20.80;70.60;;;;;;4999498;28;20084;-52
2021/06/25 12:46:10;;;;;;;21.67;17.60;;;21.00;71.50;;;;;;4992694;28;20487;-51
2021/06/25 12:48:38;;;;;;;32.10;20.08;;;21.10;71.80;;;;;;5000708;28;20446;-50
2021/06/25 12:51:11;;;;;;;28.08;19.42;;;21.10;70.60;;;;;;4998979;28;20052;-47